sensor_id;sensor_type;location;lat;lon;timestamp;P1;durP1;ratioP1;P2;durP2;ratioP2
5379;SDS011;2713;42.680;23.310;2023-05-14T00:01:27;4.40;;;3.60;;
5379;SDS011;2713;42.680;23.310;2023-05-14T00:03:54;4.10;;;3.80;;
5379;SDS011;2713;42.680;23.310;2023-05-14T00:06:20;4.40;;;4.10;;
5379;SDS011;2713;42.680;23.310;2023-05-14T00:08:47;4.00;;;3.70;;
5379;SDS011;2713;42.680;23.310;2023-05-14T00:11:14;4.10;;;3.77;;
5379;SDS011;2713;42.680;23.310;2023-05-14T00:13:41;4.10;;;3.80;;
5379;SDS011;2713;42.680;23.310;2023-05-14T00:16:08;5.13;;;3.90;;
5379;SDS011;2713;42.680;23.310;2023-05-14T00:18:36;4.30;;;3.97;;
5379;SDS011;2713;42.680;23.310;2023-05-14T00:21:03;4.93;;;3.90;;
5379;SDS011;2713;42.680;23.310;2023-05-14T00:23:30;8.43;;;4.43;;
5379;SDS011;2713;42.680;23.310;2023-05-14T00:25:57;4.53;;;4.13;;
5379;SDS011;2713;42.680;23.310;2023-05-14T00:28:23;5.20;;;4.40;;
5379;SDS011;2713;42.680;23.310;2023-05-14T00:30:50;4.70;;;4.30;;
5379;SDS011;2713;42.680;23.310;2023-05-14T00:33:17;5.87;;;4.00;;
5379;SDS011;2713;42.680;23.310;2023-05-14T00:35:45;4.33;;;4.03;;
5379;SDS011;2713;42.680;23.310;2023-05-14T00:38:12;4.70;;;3.93;;
5379;SDS011;2713;42.680;23.310;2023-05-14T00:40:41;4.40;;;4.10;;
5379;SDS011;2713;42.680;23.310;2023-05-14T00:43:10;4.17;;;3.77;;
5379;SDS011;2713;42.680;23.310;2023-05-14T00:45:37;4.47;;;4.07;;
5379;SDS011;2713;42.680;23.310;2023-05-14T00:48:04;5.47;;;3.87;;
5379;SDS011;2713;42.680;23.310;2023-05-14T00:50:32;4.30;;;3.90;;
5379;SDS011;2713;42.680;23.310;2023-05-14T00:53:01;4.57;;;4.17;;
5379;SDS011;2713;42.680;23.310;2023-05-14T00:55:28;6.30;;;3.50;;
5379;SDS011;2713;42.680;23.310;2023-05-14T00:57:56;4.50;;;4.10;;
5379;SDS011;2713;42.680;23.310;2023-05-14T01:00:24;5.10;;;4.30;;
5379;SDS011;2713;42.680;23.310;2023-05-14T01:02:51;6.10;;;4.20;;
5379;SDS011;2713;42.680;23.310;2023-05-14T01:05:18;4.50;;;3.63;;
5379;SDS011;2713;42.680;23.310;2023-05-14T01:07:47;4.10;;;3.80;;
5379;SDS011;2713;42.680;23.310;2023-05-14T01:10:23;3.43;;;3.23;;
5379;SDS011;2713;42.680;23.310;2023-05-14T01:12:59;4.33;;;3.83;;
5379;SDS011;2713;42.680;23.310;2023-05-14T01:15:33;4.10;;;3.80;;
5379;SDS011;2713;42.680;23.310;2023-05-14T01:18:04;3.87;;;3.60;;
5379;SDS011;2713;42.680;23.310;2023-05-14T01:20:32;3.90;;;3.60;;
5379;SDS011;2713;42.680;23.310;2023-05-14T01:23:01;5.10;;;3.57;;
5379;SDS011;2713;42.680;23.310;2023-05-14T01:25:28;3.87;;;3.57;;
5379;SDS011;2713;42.680;23.310;2023-05-14T01:27:56;3.93;;;3.63;;
5379;SDS011;2713;42.680;23.310;2023-05-14T01:30:28;8.03;;;3.37;;
5379;SDS011;2713;42.680;23.310;2023-05-14T01:32:59;4.40;;;4.07;;
5379;SDS011;2713;42.680;23.310;2023-05-14T01:35:28;4.73;;;4.30;;
5379;SDS011;2713;42.680;23.310;2023-05-14T01:37:56;3.70;;;3.33;;
5379;SDS011;2713;42.680;23.310;2023-05-14T01:40:27;5.30;;;3.90;;
5379;SDS011;2713;42.680;23.310;2023-05-14T01:42:55;5.33;;;3.80;;
5379;SDS011;2713;42.680;23.310;2023-05-14T01:45:22;4.90;;;3.97;;
5379;SDS011;2713;42.680;23.310;2023-05-14T01:47:49;4.10;;;3.73;;
5379;SDS011;2713;42.680;23.310;2023-05-14T01:50:16;3.97;;;3.67;;
5379;SDS011;2713;42.680;23.310;2023-05-14T01:52:44;4.00;;;3.70;;
5379;SDS011;2713;42.680;23.310;2023-05-14T01:55:12;4.10;;;3.77;;
5379;SDS011;2713;42.680;23.310;2023-05-14T01:57:41;3.97;;;3.50;;
5379;SDS011;2713;42.680;23.310;2023-05-14T02:00:08;3.77;;;3.47;;
5379;SDS011;2713;42.680;23.310;2023-05-14T02:02:41;4.33;;;3.47;;
5379;SDS011;2713;42.680;23.310;2023-05-14T02:05:10;4.10;;;3.43;;
5379;SDS011;2713;42.680;23.310;2023-05-14T02:07:37;3.90;;;3.60;;
5379;SDS011;2713;42.680;23.310;2023-05-14T02:10:05;3.60;;;3.40;;
5379;SDS011;2713;42.680;23.310;2023-05-14T02:12:33;3.80;;;3.50;;
5379;SDS011;2713;42.680;23.310;2023-05-14T02:15:01;3.33;;;3.13;;
5379;SDS011;2713;42.680;23.310;2023-05-14T02:17:28;4.10;;;3.70;;
5379;SDS011;2713;42.680;23.310;2023-05-14T02:19:55;4.03;;;3.73;;
5379;SDS011;2713;42.680;23.310;2023-05-14T02:22:21;3.60;;;3.30;;
5379;SDS011;2713;42.680;23.310;2023-05-14T02:24:48;3.67;;;3.40;;
5379;SDS011;2713;42.680;23.310;2023-05-14T02:27:16;3.50;;;3.20;;
5379;SDS011;2713;42.680;23.310;2023-05-14T02:29:43;3.57;;;3.37;;
5379;SDS011;2713;42.680;23.310;2023-05-14T02:32:11;3.73;;;3.33;;
5379;SDS011;2713;42.680;23.310;2023-05-14T02:34:38;3.50;;;3.20;;
5379;SDS011;2713;42.680;23.310;2023-05-14T02:37:05;4.27;;;3.33;;
5379;SDS011;2713;42.680;23.310;2023-05-14T02:39:32;3.67;;;3.37;;
5379;SDS011;2713;42.680;23.310;2023-05-14T02:41:59;3.80;;;3.50;;
5379;SDS011;2713;42.680;23.310;2023-05-14T02:44:25;6.20;;;3.43;;
5379;SDS011;2713;42.680;23.310;2023-05-14T02:46:52;3.50;;;3.20;;
5379;SDS011;2713;42.680;23.310;2023-05-14T02:49:20;3.70;;;3.37;;
5379;SDS011;2713;42.680;23.310;2023-05-14T02:51:47;3.87;;;3.47;;
5379;SDS011;2713;42.680;23.310;2023-05-14T02:54:14;4.00;;;3.70;;
5379;SDS011;2713;42.680;23.310;2023-05-14T02:56:41;4.27;;;3.60;;
5379;SDS011;2713;42.680;23.310;2023-05-14T02:59:08;3.40;;;3.13;;
5379;SDS011;2713;42.680;23.310;2023-05-14T03:01:35;3.47;;;3.27;;
5379;SDS011;2713;42.680;23.310;2023-05-14T03:04:02;3.60;;;3.40;;
5379;SDS011;2713;42.680;23.310;2023-05-14T03:06:30;3.60;;;3.30;;
5379;SDS011;2713;42.680;23.310;2023-05-14T03:08:57;3.30;;;3.10;;
5379;SDS011;2713;42.680;23.310;2023-05-14T03:11:24;3.70;;;3.40;;
5379;SDS011;2713;42.680;23.310;2023-05-14T03:13:51;3.70;;;3.40;;
5379;SDS011;2713;42.680;23.310;2023-05-14T03:16:18;3.47;;;3.27;;
5379;SDS011;2713;42.680;23.310;2023-05-14T03:18:44;3.43;;;3.13;;
5379;SDS011;2713;42.680;23.310;2023-05-14T03:21:12;5.90;;;3.30;;
5379;SDS011;2713;42.680;23.310;2023-05-14T03:23:40;4.60;;;3.50;;
5379;SDS011;2713;42.680;23.310;2023-05-14T03:26:07;3.37;;;3.17;;
5379;SDS011;2713;42.680;23.310;2023-05-14T03:28:35;4.70;;;3.37;;
5379;SDS011;2713;42.680;23.310;2023-05-14T03:31:02;4.37;;;3.20;;
5379;SDS011;2713;42.680;23.310;2023-05-14T03:33:29;4.17;;;3.77;;
5379;SDS011;2713;42.680;23.310;2023-05-14T03:35:56;3.47;;;3.20;;
5379;SDS011;2713;42.680;23.310;2023-05-14T03:38:23;3.53;;;3.20;;
5379;SDS011;2713;42.680;23.310;2023-05-14T03:40:51;3.90;;;3.60;;
5379;SDS011;2713;42.680;23.310;2023-05-14T03:43:18;6.47;;;3.43;;
5379;SDS011;2713;42.680;23.310;2023-05-14T03:45:46;3.70;;;3.37;;
5379;SDS011;2713;42.680;23.310;2023-05-14T03:48:16;3.87;;;3.57;;
5379;SDS011;2713;42.680;23.310;2023-05-14T03:50:43;4.17;;;3.80;;
5379;SDS011;2713;42.680;23.310;2023-05-14T03:53:10;4.20;;;3.80;;
5379;SDS011;2713;42.680;23.310;2023-05-14T03:55:37;3.90;;;3.60;;
5379;SDS011;2713;42.680;23.310;2023-05-14T03:58:09;3.60;;;3.30;;
5379;SDS011;2713;42.680;23.310;2023-05-14T04:00:38;3.60;;;3.30;;
5379;SDS011;2713;42.680;23.310;2023-05-14T04:03:06;3.73;;;3.53;;
5379;SDS011;2713;42.680;23.310;2023-05-14T04:05:33;4.93;;;3.23;;
5379;SDS011;2713;42.680;23.310;2023-05-14T04:08:00;3.77;;;3.50;;
5379;SDS011;2713;42.680;23.310;2023-05-14T04:10:27;3.63;;;3.40;;
5379;SDS011;2713;42.680;23.310;2023-05-14T04:12:53;3.70;;;3.40;;
5379;SDS011;2713;42.680;23.310;2023-05-14T04:15:24;3.57;;;3.27;;
5379;SDS011;2713;42.680;23.310;2023-05-14T04:17:52;3.20;;;3.00;;
5379;SDS011;2713;42.680;23.310;2023-05-14T04:20:18;3.37;;;3.17;;
5379;SDS011;2713;42.680;23.310;2023-05-14T04:22:45;4.33;;;3.50;;
5379;SDS011;2713;42.680;23.310;2023-05-14T04:25:13;4.27;;;3.60;;
5379;SDS011;2713;42.680;23.310;2023-05-14T04:27:40;7.43;;;3.90;;
5379;SDS011;2713;42.680;23.310;2023-05-14T04:30:07;5.00;;;3.43;;
5379;SDS011;2713;42.680;23.310;2023-05-14T04:32:36;5.70;;;3.60;;
5379;SDS011;2713;42.680;23.310;2023-05-14T04:35:04;6.60;;;3.63;;
5379;SDS011;2713;42.680;23.310;2023-05-14T04:37:31;3.47;;;3.20;;
5379;SDS011;2713;42.680;23.310;2023-05-14T04:39:58;3.80;;;3.50;;
5379;SDS011;2713;42.680;23.310;2023-05-14T04:42:25;3.70;;;3.40;;
5379;SDS011;2713;42.680;23.310;2023-05-14T04:44:52;3.93;;;3.63;;
5379;SDS011;2713;42.680;23.310;2023-05-14T04:47:18;3.70;;;3.50;;
5379;SDS011;2713;42.680;23.310;2023-05-14T04:49:47;4.10;;;3.80;;
5379;SDS011;2713;42.680;23.310;2023-05-14T04:52:14;4.10;;;3.63;;
5379;SDS011;2713;42.680;23.310;2023-05-14T04:54:41;3.80;;;3.33;;
5379;SDS011;2713;42.680;23.310;2023-05-14T04:57:08;4.47;;;3.97;;
5379;SDS011;2713;42.680;23.310;2023-05-14T04:59:34;3.60;;;3.30;;
5379;SDS011;2713;42.680;23.310;2023-05-14T05:02:01;4.27;;;3.50;;
5379;SDS011;2713;42.680;23.310;2023-05-14T05:04:28;4.30;;;4.00;;
5379;SDS011;2713;42.680;23.310;2023-05-14T05:07:01;3.87;;;3.50;;
5379;SDS011;2713;42.680;23.310;2023-05-14T05:09:28;4.00;;;3.60;;
5379;SDS011;2713;42.680;23.310;2023-05-14T05:11:55;4.93;;;3.80;;
5379;SDS011;2713;42.680;23.310;2023-05-14T05:14:23;4.33;;;4.03;;
5379;SDS011;2713;42.680;23.310;2023-05-14T05:16:50;5.37;;;4.00;;
5379;SDS011;2713;42.680;23.310;2023-05-14T05:19:17;4.17;;;3.77;;
5379;SDS011;2713;42.680;23.310;2023-05-14T05:21:44;5.00;;;3.87;;
5379;SDS011;2713;42.680;23.310;2023-05-14T05:24:12;4.70;;;4.30;;
5379;SDS011;2713;42.680;23.310;2023-05-14T05:26:39;4.10;;;3.80;;
5379;SDS011;2713;42.680;23.310;2023-05-14T05:29:08;4.70;;;4.30;;
5379;SDS011;2713;42.680;23.310;2023-05-14T05:31:35;4.70;;;4.40;;
5379;SDS011;2713;42.680;23.310;2023-05-14T05:34:02;4.83;;;4.30;;
5379;SDS011;2713;42.680;23.310;2023-05-14T05:36:30;4.47;;;4.17;;
5379;SDS011;2713;42.680;23.310;2023-05-14T05:38:57;5.30;;;4.80;;
5379;SDS011;2713;42.680;23.310;2023-05-14T05:41:25;4.97;;;4.33;;
5379;SDS011;2713;42.680;23.310;2023-05-14T05:43:51;4.73;;;4.43;;
5379;SDS011;2713;42.680;23.310;2023-05-14T05:46:18;6.43;;;5.10;;
5379;SDS011;2713;42.680;23.310;2023-05-14T05:48:45;4.97;;;4.47;;
5379;SDS011;2713;42.680;23.310;2023-05-14T05:51:12;6.40;;;4.87;;
5379;SDS011;2713;42.680;23.310;2023-05-14T05:53:39;5.43;;;4.93;;
5379;SDS011;2713;42.680;23.310;2023-05-14T05:56:06;5.10;;;4.70;;
5379;SDS011;2713;42.680;23.310;2023-05-14T05:58:34;5.63;;;4.87;;
5379;SDS011;2713;42.680;23.310;2023-05-14T06:01:01;6.33;;;5.30;;
5379;SDS011;2713;42.680;23.310;2023-05-14T06:03:28;5.07;;;4.63;;
5379;SDS011;2713;42.680;23.310;2023-05-14T06:05:54;7.50;;;5.70;;
5379;SDS011;2713;42.680;23.310;2023-05-14T06:08:21;5.63;;;5.13;;
5379;SDS011;2713;42.680;23.310;2023-05-14T06:10:48;6.10;;;5.50;;
5379;SDS011;2713;42.680;23.310;2023-05-14T06:13:15;5.73;;;5.00;;
5379;SDS011;2713;42.680;23.310;2023-05-14T06:15:43;9.00;;;6.70;;
5379;SDS011;2713;42.680;23.310;2023-05-14T06:18:10;7.67;;;5.27;;
5379;SDS011;2713;42.680;23.310;2023-05-14T06:20:36;6.77;;;6.17;;
5379;SDS011;2713;42.680;23.310;2023-05-14T06:23:04;5.80;;;5.30;;
5379;SDS011;2713;42.680;23.310;2023-05-14T06:25:32;5.30;;;4.90;;
5379;SDS011;2713;42.680;23.310;2023-05-14T06:27:59;6.20;;;5.60;;
5379;SDS011;2713;42.680;23.310;2023-05-14T06:30:26;5.80;;;5.30;;
5379;SDS011;2713;42.680;23.310;2023-05-14T06:32:54;5.80;;;5.27;;
5379;SDS011;2713;42.680;23.310;2023-05-14T06:35:22;5.60;;;5.03;;
5379;SDS011;2713;42.680;23.310;2023-05-14T06:37:49;6.60;;;5.33;;
5379;SDS011;2713;42.680;23.310;2023-05-14T06:40:16;5.90;;;5.30;;
5379;SDS011;2713;42.680;23.310;2023-05-14T06:42:43;6.03;;;5.30;;
5379;SDS011;2713;42.680;23.310;2023-05-14T06:45:10;8.20;;;5.50;;
5379;SDS011;2713;42.680;23.310;2023-05-14T06:47:37;7.83;;;5.73;;
5379;SDS011;2713;42.680;23.310;2023-05-14T06:50:06;7.97;;;6.27;;
5379;SDS011;2713;42.680;23.310;2023-05-14T06:52:33;7.87;;;6.40;;
5379;SDS011;2713;42.680;23.310;2023-05-14T06:55:00;7.60;;;5.80;;
5379;SDS011;2713;42.680;23.310;2023-05-14T06:57:26;7.00;;;6.30;;
5379;SDS011;2713;42.680;23.310;2023-05-14T06:59:53;9.97;;;6.60;;
5379;SDS011;2713;42.680;23.310;2023-05-14T07:02:20;7.53;;;6.30;;
5379;SDS011;2713;42.680;23.310;2023-05-14T07:04:47;5.90;;;5.43;;
5379;SDS011;2713;42.680;23.310;2023-05-14T07:07:15;7.40;;;6.70;;
5379;SDS011;2713;42.680;23.310;2023-05-14T07:09:44;11.97;;;7.70;;
5379;SDS011;2713;42.680;23.310;2023-05-14T07:12:11;8.60;;;7.40;;
5379;SDS011;2713;42.680;23.310;2023-05-14T07:14:38;8.10;;;7.30;;
5379;SDS011;2713;42.680;23.310;2023-05-14T07:17:05;7.27;;;6.60;;
5379;SDS011;2713;42.680;23.310;2023-05-14T07:19:31;8.57;;;7.20;;
5379;SDS011;2713;42.680;23.310;2023-05-14T07:21:58;6.97;;;6.37;;
5379;SDS011;2713;42.680;23.310;2023-05-14T07:24:27;7.87;;;6.53;;
5379;SDS011;2713;42.680;23.310;2023-05-14T07:26:54;9.20;;;6.60;;
5379;SDS011;2713;42.680;23.310;2023-05-14T07:29:21;6.70;;;6.10;;
5379;SDS011;2713;42.680;23.310;2023-05-14T07:31:49;9.60;;;7.40;;
5379;SDS011;2713;42.680;23.310;2023-05-14T07:34:16;8.30;;;6.87;;
5379;SDS011;2713;42.680;23.310;2023-05-14T07:36:43;7.97;;;7.00;;
5379;SDS011;2713;42.680;23.310;2023-05-14T07:39:11;10.13;;;8.10;;
5379;SDS011;2713;42.680;23.310;2023-05-14T07:41:39;9.03;;;8.10;;
5379;SDS011;2713;42.680;23.310;2023-05-14T07:44:06;9.93;;;8.80;;
5379;SDS011;2713;42.680;23.310;2023-05-14T07:46:33;8.57;;;7.80;;
5379;SDS011;2713;42.680;23.310;2023-05-14T07:49:01;11.03;;;9.00;;
5379;SDS011;2713;42.680;23.310;2023-05-14T07:51:29;8.73;;;7.50;;
5379;SDS011;2713;42.680;23.310;2023-05-14T07:53:57;7.30;;;6.60;;
5379;SDS011;2713;42.680;23.310;2023-05-14T07:56:25;7.77;;;7.00;;
5379;SDS011;2713;42.680;23.310;2023-05-14T07:58:53;11.73;;;7.03;;
5379;SDS011;2713;42.680;23.310;2023-05-14T08:01:20;7.20;;;6.60;;
5379;SDS011;2713;42.680;23.310;2023-05-14T08:03:48;7.50;;;6.80;;
5379;SDS011;2713;42.680;23.310;2023-05-14T08:06:15;7.80;;;7.00;;
5379;SDS011;2713;42.680;23.310;2023-05-14T08:08:42;7.43;;;6.63;;
5379;SDS011;2713;42.680;23.310;2023-05-14T08:11:09;7.53;;;6.73;;
5379;SDS011;2713;42.680;23.310;2023-05-14T08:13:37;8.60;;;5.83;;
5379;SDS011;2713;42.680;23.310;2023-05-14T08:16:06;10.23;;;7.60;;
5379;SDS011;2713;42.680;23.310;2023-05-14T08:18:33;8.83;;;7.40;;
5379;SDS011;2713;42.680;23.310;2023-05-14T08:21:00;7.67;;;6.87;;
5379;SDS011;2713;42.680;23.310;2023-05-14T08:23:27;8.20;;;7.40;;
5379;SDS011;2713;42.680;23.310;2023-05-14T08:25:55;9.67;;;6.90;;
5379;SDS011;2713;42.680;23.310;2023-05-14T08:28:23;11.73;;;6.73;;
5379;SDS011;2713;42.680;23.310;2023-05-14T08:30:50;8.03;;;6.80;;
5379;SDS011;2713;42.680;23.310;2023-05-14T08:33:19;7.13;;;6.50;;
5379;SDS011;2713;42.680;23.310;2023-05-14T08:35:53;7.83;;;6.43;;
5379;SDS011;2713;42.680;23.310;2023-05-14T08:38:30;7.50;;;6.80;;
5379;SDS011;2713;42.680;23.310;2023-05-14T08:44:32;7.93;;;7.00;;
5379;SDS011;2713;42.680;23.310;2023-05-14T08:47:05;9.33;;;7.40;;
5379;SDS011;2713;42.680;23.310;2023-05-14T08:49:37;8.87;;;7.10;;
5379;SDS011;2713;42.680;23.310;2023-05-14T08:52:06;8.20;;;7.33;;
5379;SDS011;2713;42.680;23.310;2023-05-14T08:54:37;8.33;;;6.60;;
5379;SDS011;2713;42.680;23.310;2023-05-14T08:57:06;7.90;;;7.17;;
5379;SDS011;2713;42.680;23.310;2023-05-14T08:59:36;8.50;;;7.10;;
5379;SDS011;2713;42.680;23.310;2023-05-14T09:02:06;9.23;;;7.20;;
5379;SDS011;2713;42.680;23.310;2023-05-14T09:04:38;9.00;;;8.00;;
5379;SDS011;2713;42.680;23.310;2023-05-14T09:07:08;8.00;;;7.20;;
5379;SDS011;2713;42.680;23.310;2023-05-14T09:09:35;12.70;;;7.50;;
5379;SDS011;2713;42.680;23.310;2023-05-14T09:12:04;10.00;;;7.23;;
5379;SDS011;2713;42.680;23.310;2023-05-14T09:14:32;8.07;;;7.27;;
5379;SDS011;2713;42.680;23.310;2023-05-14T09:16:58;8.70;;;7.63;;
5379;SDS011;2713;42.680;23.310;2023-05-14T09:19:27;9.47;;;7.70;;
5379;SDS011;2713;42.680;23.310;2023-05-14T09:21:56;11.93;;;7.53;;
5379;SDS011;2713;42.680;23.310;2023-05-14T09:24:25;9.90;;;7.63;;
5379;SDS011;2713;42.680;23.310;2023-05-14T09:26:55;8.57;;;7.30;;
5379;SDS011;2713;42.680;23.310;2023-05-14T09:29:23;9.50;;;8.13;;
5379;SDS011;2713;42.680;23.310;2023-05-14T09:31:50;9.03;;;8.13;;
5379;SDS011;2713;42.680;23.310;2023-05-14T09:34:24;8.37;;;7.53;;
5379;SDS011;2713;42.680;23.310;2023-05-14T09:36:53;10.37;;;8.10;;
5379;SDS011;2713;42.680;23.310;2023-05-14T09:39:22;8.77;;;7.87;;
5379;SDS011;2713;42.680;23.310;2023-05-14T09:41:50;8.97;;;8.13;;
5379;SDS011;2713;42.680;23.310;2023-05-14T09:44:17;9.30;;;8.50;;
5379;SDS011;2713;42.680;23.310;2023-05-14T09:46:44;8.90;;;8.00;;
5379;SDS011;2713;42.680;23.310;2023-05-14T10:38:09;9.80;;;8.83;;
5379;SDS011;2713;42.680;23.310;2023-05-14T10:40:40;9.50;;;8.50;;
5379;SDS011;2713;42.680;23.310;2023-05-14T10:43:07;17.20;;;11.73;;
5379;SDS011;2713;42.680;23.310;2023-05-14T10:45:35;11.67;;;10.53;;
5379;SDS011;2713;42.680;23.310;2023-05-14T10:48:02;10.30;;;9.30;;
5379;SDS011;2713;42.680;23.310;2023-05-14T10:50:29;10.87;;;9.77;;
5379;SDS011;2713;42.680;23.310;2023-05-14T10:52:56;10.80;;;9.70;;
5379;SDS011;2713;42.680;23.310;2023-05-14T10:55:24;11.20;;;10.10;;
5379;SDS011;2713;42.680;23.310;2023-05-14T10:57:51;10.70;;;9.60;;
5379;SDS011;2713;42.680;23.310;2023-05-14T11:00:18;10.10;;;9.10;;
5379;SDS011;2713;42.680;23.310;2023-05-14T11:02:45;13.20;;;9.67;;
5379;SDS011;2713;42.680;23.310;2023-05-14T11:05:13;11.30;;;10.10;;
5379;SDS011;2713;42.680;23.310;2023-05-14T11:07:41;10.43;;;8.67;;
5379;SDS011;2713;42.680;23.310;2023-05-14T11:10:10;10.83;;;9.73;;
5379;SDS011;2713;42.680;23.310;2023-05-14T11:12:41;9.87;;;8.97;;
5379;SDS011;2713;42.680;23.310;2023-05-14T11:15:19;11.23;;;10.03;;
5379;SDS011;2713;42.680;23.310;2023-05-14T11:17:52;10.20;;;9.30;;
5379;SDS011;2713;42.680;23.310;2023-05-14T11:20:20;11.10;;;9.00;;
5379;SDS011;2713;42.680;23.310;2023-05-14T11:22:47;10.33;;;9.13;;
5379;SDS011;2713;42.680;23.310;2023-05-14T11:25:15;9.57;;;8.67;;
5379;SDS011;2713;42.680;23.310;2023-05-14T11:27:44;12.43;;;8.27;;
5379;SDS011;2713;42.680;23.310;2023-05-14T11:30:13;10.13;;;8.50;;
5379;SDS011;2713;42.680;23.310;2023-05-14T11:32:41;9.30;;;8.40;;
5379;SDS011;2713;42.680;23.310;2023-05-14T11:35:10;9.23;;;7.90;;
5379;SDS011;2713;42.680;23.310;2023-05-14T11:37:37;8.33;;;7.63;;
5379;SDS011;2713;42.680;23.310;2023-05-14T11:40:07;9.80;;;8.90;;
5379;SDS011;2713;42.680;23.310;2023-05-14T11:42:40;8.90;;;8.07;;
5379;SDS011;2713;42.680;23.310;2023-05-14T11:45:10;11.10;;;9.63;;
5379;SDS011;2713;42.680;23.310;2023-05-14T11:47:53;9.73;;;8.83;;
5379;SDS011;2713;42.680;23.310;2023-05-14T11:50:23;9.07;;;8.27;;
5379;SDS011;2713;42.680;23.310;2023-05-14T11:52:54;9.67;;;8.70;;
5379;SDS011;2713;42.680;23.310;2023-05-14T11:55:22;9.57;;;8.50;;
5379;SDS011;2713;42.680;23.310;2023-05-14T11:57:49;9.10;;;8.17;;
5379;SDS011;2713;42.680;23.310;2023-05-14T12:00:18;8.87;;;8.13;;
5379;SDS011;2713;42.680;23.310;2023-05-14T12:02:47;9.10;;;8.07;;
5379;SDS011;2713;42.680;23.310;2023-05-14T12:05:14;11.50;;;9.23;;
5379;SDS011;2713;42.680;23.310;2023-05-14T12:07:43;9.20;;;8.27;;
5379;SDS011;2713;42.680;23.310;2023-05-14T12:10:10;9.60;;;8.67;;
5379;SDS011;2713;42.680;23.310;2023-05-14T12:12:38;8.87;;;8.07;;
5379;SDS011;2713;42.680;23.310;2023-05-14T12:15:09;9.33;;;8.43;;
5379;SDS011;2713;42.680;23.310;2023-05-14T12:17:39;9.80;;;8.60;;
5379;SDS011;2713;42.680;23.310;2023-05-14T12:20:07;9.37;;;8.40;;
5379;SDS011;2713;42.680;23.310;2023-05-14T12:22:36;9.87;;;8.90;;
5379;SDS011;2713;42.680;23.310;2023-05-14T12:25:08;9.10;;;8.17;;
5379;SDS011;2713;42.680;23.310;2023-05-14T12:27:43;9.40;;;8.50;;
5379;SDS011;2713;42.680;23.310;2023-05-14T12:30:16;10.20;;;9.20;;
5379;SDS011;2713;42.680;23.310;2023-05-14T12:36:08;9.03;;;8.23;;
5379;SDS011;2713;42.680;23.310;2023-05-14T12:38:36;9.67;;;8.67;;
5379;SDS011;2713;42.680;23.310;2023-05-14T12:41:05;10.20;;;9.10;;
5379;SDS011;2713;42.680;23.310;2023-05-14T12:43:32;12.20;;;9.77;;
5379;SDS011;2713;42.680;23.310;2023-05-14T12:46:00;9.27;;;8.37;;
5379;SDS011;2713;42.680;23.310;2023-05-14T12:48:31;10.40;;;9.30;;
5379;SDS011;2713;42.680;23.310;2023-05-14T12:50:59;11.80;;;10.10;;
5379;SDS011;2713;42.680;23.310;2023-05-14T12:53:26;9.63;;;8.73;;
5379;SDS011;2713;42.680;23.310;2023-05-14T12:55:53;9.90;;;9.00;;
5379;SDS011;2713;42.680;23.310;2023-05-14T12:58:21;10.97;;;9.30;;
5379;SDS011;2713;42.680;23.310;2023-05-14T13:00:49;9.27;;;8.37;;
5379;SDS011;2713;42.680;23.310;2023-05-14T13:03:19;12.67;;;9.07;;
5379;SDS011;2713;42.680;23.310;2023-05-14T13:05:48;12.43;;;10.03;;
5379;SDS011;2713;42.680;23.310;2023-05-14T13:08:17;10.33;;;9.33;;
5379;SDS011;2713;42.680;23.310;2023-05-14T13:10:45;11.03;;;9.40;;
5379;SDS011;2713;42.680;23.310;2023-05-14T13:13:14;11.07;;;9.90;;
5379;SDS011;2713;42.680;23.310;2023-05-14T13:15:41;11.17;;;9.27;;
5379;SDS011;2713;42.680;23.310;2023-05-14T13:18:11;10.80;;;9.70;;
5379;SDS011;2713;42.680;23.310;2023-05-14T13:20:38;10.97;;;9.50;;
5379;SDS011;2713;42.680;23.310;2023-05-14T13:23:06;12.30;;;10.60;;
5379;SDS011;2713;42.680;23.310;2023-05-14T13:25:34;11.43;;;10.30;;
5379;SDS011;2713;42.680;23.310;2023-05-14T13:28:02;11.37;;;10.17;;
5379;SDS011;2713;42.680;23.310;2023-05-14T13:30:29;11.43;;;10.23;;
5379;SDS011;2713;42.680;23.310;2023-05-14T13:32:57;13.10;;;11.50;;
5379;SDS011;2713;42.680;23.310;2023-05-14T13:35:25;11.40;;;10.10;;
5379;SDS011;2713;42.680;23.310;2023-05-14T13:37:51;13.63;;;11.97;;
5379;SDS011;2713;42.680;23.310;2023-05-14T13:40:20;14.03;;;12.53;;
5379;SDS011;2713;42.680;23.310;2023-05-14T13:42:47;14.43;;;11.80;;
5379;SDS011;2713;42.680;23.310;2023-05-14T13:45:15;11.80;;;9.40;;
5379;SDS011;2713;42.680;23.310;2023-05-14T13:47:43;10.00;;;9.00;;
5379;SDS011;2713;42.680;23.310;2023-05-14T13:50:13;12.90;;;9.57;;
5379;SDS011;2713;42.680;23.310;2023-05-14T13:52:39;10.57;;;9.30;;
5379;SDS011;2713;42.680;23.310;2023-05-14T13:55:09;10.40;;;9.30;;
5379;SDS011;2713;42.680;23.310;2023-05-14T13:57:40;11.73;;;9.77;;
5379;SDS011;2713;42.680;23.310;2023-05-14T14:00:08;12.90;;;11.00;;
5379;SDS011;2713;42.680;23.310;2023-05-14T14:02:43;12.60;;;11.13;;
5379;SDS011;2713;42.680;23.310;2023-05-14T14:05:10;12.40;;;10.10;;
5379;SDS011;2713;42.680;23.310;2023-05-14T14:07:39;18.03;;;12.47;;
5379;SDS011;2713;42.680;23.310;2023-05-14T14:10:08;18.53;;;13.13;;
5379;SDS011;2713;42.680;23.310;2023-05-14T14:12:35;13.90;;;12.40;;
5379;SDS011;2713;42.680;23.310;2023-05-14T14:15:04;13.10;;;11.60;;
5379;SDS011;2713;42.680;23.310;2023-05-14T14:17:35;14.53;;;13.00;;
5379;SDS011;2713;42.680;23.310;2023-05-14T14:20:03;14.77;;;12.70;;
5379;SDS011;2713;42.680;23.310;2023-05-14T14:22:37;18.50;;;13.77;;
5379;SDS011;2713;42.680;23.310;2023-05-14T14:25:05;16.10;;;13.60;;
5379;SDS011;2713;42.680;23.310;2023-05-14T14:27:37;18.50;;;13.93;;
5379;SDS011;2713;42.680;23.310;2023-05-14T14:30:09;19.00;;;15.00;;
5379;SDS011;2713;42.680;23.310;2023-05-14T14:32:41;16.93;;;14.80;;
5379;SDS011;2713;42.680;23.310;2023-05-14T14:35:14;21.23;;;15.83;;
5379;SDS011;2713;42.680;23.310;2023-05-14T14:37:55;17.90;;;14.73;;
5379;SDS011;2713;42.680;23.310;2023-05-14T14:40:24;19.23;;;15.07;;
5379;SDS011;2713;42.680;23.310;2023-05-14T14:42:51;19.10;;;16.20;;
5379;SDS011;2713;42.680;23.310;2023-05-14T14:45:19;18.40;;;14.27;;
5379;SDS011;2713;42.680;23.310;2023-05-14T14:47:47;17.93;;;15.00;;
5379;SDS011;2713;42.680;23.310;2023-05-14T14:50:15;16.83;;;14.60;;
5379;SDS011;2713;42.680;23.310;2023-05-14T14:52:41;16.90;;;15.10;;
5379;SDS011;2713;42.680;23.310;2023-05-14T14:55:09;18.13;;;15.07;;
5379;SDS011;2713;42.680;23.310;2023-05-14T14:57:36;16.80;;;14.33;;
5379;SDS011;2713;42.680;23.310;2023-05-14T15:00:04;17.07;;;14.20;;
5379;SDS011;2713;42.680;23.310;2023-05-14T15:02:36;16.43;;;13.90;;
5379;SDS011;2713;42.680;23.310;2023-05-14T15:05:07;18.90;;;15.40;;
5379;SDS011;2713;42.680;23.310;2023-05-14T15:07:37;18.50;;;14.87;;
5379;SDS011;2713;42.680;23.310;2023-05-14T15:10:05;19.53;;;14.60;;
5379;SDS011;2713;42.680;23.310;2023-05-14T15:12:32;17.87;;;14.57;;
5379;SDS011;2713;42.680;23.310;2023-05-14T15:15:00;18.37;;;14.57;;
5379;SDS011;2713;42.680;23.310;2023-05-14T15:17:27;17.80;;;14.07;;
5379;SDS011;2713;42.680;23.310;2023-05-14T15:19:56;19.90;;;15.23;;
5379;SDS011;2713;42.680;23.310;2023-05-14T15:22:23;18.73;;;14.90;;
5379;SDS011;2713;42.680;23.310;2023-05-14T15:24:49;19.27;;;15.40;;
5379;SDS011;2713;42.680;23.310;2023-05-14T15:27:16;18.83;;;15.70;;
5379;SDS011;2713;42.680;23.310;2023-05-14T15:29:43;21.30;;;16.30;;
5379;SDS011;2713;42.680;23.310;2023-05-14T15:32:10;19.23;;;15.40;;
5379;SDS011;2713;42.680;23.310;2023-05-14T15:34:37;15.70;;;13.53;;
5379;SDS011;2713;42.680;23.310;2023-05-14T15:37:05;16.40;;;14.00;;
5379;SDS011;2713;42.680;23.310;2023-05-14T15:39:32;16.57;;;12.93;;
5379;SDS011;2713;42.680;23.310;2023-05-14T15:41:59;15.43;;;13.20;;
5379;SDS011;2713;42.680;23.310;2023-05-14T15:44:26;16.47;;;14.67;;
5379;SDS011;2713;42.680;23.310;2023-05-14T15:46:53;18.30;;;14.20;;
5379;SDS011;2713;42.680;23.310;2023-05-14T15:49:20;19.70;;;15.37;;
5379;SDS011;2713;42.680;23.310;2023-05-14T15:51:46;17.07;;;14.33;;
5379;SDS011;2713;42.680;23.310;2023-05-14T15:54:15;16.67;;;14.17;;
5379;SDS011;2713;42.680;23.310;2023-05-14T15:56:42;18.97;;;14.13;;